createdAt,value
2022-12-28T00:01:28.515Z,5.65
2022-12-28T00:03:58.581Z,6.32
2022-12-28T00:06:26.460Z,6.72
2022-12-28T00:08:54.830Z,6.43
2022-12-28T00:11:28.336Z,6.40
2022-12-28T00:14:00.356Z,6.22
2022-12-28T00:16:36.187Z,6.45
2022-12-28T00:19:06.782Z,6.75
2022-12-28T00:21:34.657Z,6.10
2022-12-28T00:24:02.642Z,6.38
2022-12-28T00:26:32.110Z,7.38
2022-12-28T00:29:04.682Z,6.90
2022-12-28T00:31:34.228Z,6.82
2022-12-28T00:34:02.916Z,7.18
2022-12-28T00:37:09.999Z,7.00
2022-12-28T00:39:22.230Z,6.38
2022-12-28T00:41:49.778Z,6.93
2022-12-28T00:44:17.158Z,6.93
2022-12-28T00:46:44.697Z,6.97
2022-12-28T00:49:11.841Z,6.47
2022-12-28T00:51:39.356Z,7.20
2022-12-28T00:54:06.850Z,7.25
2022-12-28T00:56:34.376Z,7.53
2022-12-28T00:59:01.664Z,8.95
2022-12-28T01:01:29.690Z,7.95
2022-12-28T01:03:59.887Z,8.05
2022-12-28T01:06:29.638Z,7.75
2022-12-28T01:08:58.161Z,8.32
2022-12-28T01:11:30.053Z,7.90
2022-12-28T01:14:00.886Z,7.57
2022-12-28T01:16:34.533Z,7.25
2022-12-28T01:19:05.356Z,7.60
2022-12-28T01:21:34.416Z,6.78
2022-12-28T01:24:03.117Z,7.47
2022-12-28T01:26:32.885Z,7.45
2022-12-28T01:29:00.430Z,7.00
2022-12-28T01:31:28.227Z,7.80
2022-12-28T01:33:55.531Z,8.63
2022-12-28T01:36:24.966Z,7.90
2022-12-28T01:38:57.046Z,8.05
2022-12-28T01:41:25.552Z,8.45
2022-12-28T01:43:52.884Z,8.00
2022-12-28T01:46:43.396Z,8.27
2022-12-28T01:49:18.619Z,7.22
2022-12-28T01:52:00.864Z,7.50
2022-12-28T01:54:31.089Z,8.05
2022-12-28T01:56:58.793Z,7.50
2022-12-28T01:59:28.692Z,8.00
2022-12-28T02:01:57.014Z,7.15
2022-12-28T02:04:25.261Z,7.75
2022-12-28T02:06:53.284Z,6.82
2022-12-28T02:09:24.104Z,7.53
2022-12-28T02:11:51.960Z,7.68
2022-12-28T02:14:21.874Z,7.25
2022-12-28T02:16:53.463Z,7.60
2022-12-28T02:19:30.329Z,8.10
2022-12-28T02:22:10.389Z,7.95
2022-12-28T02:25:11.574Z,7.88
2022-12-28T02:27:59.333Z,7.53
2022-12-28T02:30:26.703Z,8.05
2022-12-28T02:33:06.579Z,6.82
2022-12-28T02:35:52.372Z,7.15
2022-12-28T02:38:38.124Z,8.77
2022-12-28T02:41:14.484Z,8.30
2022-12-28T02:43:42.012Z,7.50
2022-12-28T02:46:33.722Z,8.75
2022-12-28T02:49:19.636Z,7.78
2022-12-28T02:52:24.163Z,7.97
2022-12-28T02:55:29.375Z,8.10
2022-12-28T02:58:34.090Z,8.15
2022-12-28T03:01:24.707Z,8.25
2022-12-28T03:04:15.110Z,8.88
2022-12-28T03:07:07.109Z,8.77
2022-12-28T03:09:41.995Z,8.85
2022-12-28T03:12:59.273Z,9.95
2022-12-28T03:15:30.276Z,8.05
2022-12-28T03:18:23.509Z,8.75
2022-12-28T03:21:11.194Z,8.75
2022-12-28T03:23:59.934Z,9.23
2022-12-28T03:26:48.809Z,10.13
2022-12-28T03:29:35.941Z,10.20
2022-12-28T03:32:03.681Z,9.55
2022-12-28T03:34:33.318Z,10.38
2022-12-28T03:37:19.087Z,10.77
2022-12-28T03:40:05.863Z,10.02
2022-12-28T03:43:07.985Z,10.20
2022-12-28T03:45:45.974Z,9.68
2022-12-28T03:48:16.295Z,9.82
2022-12-28T03:50:46.840Z,9.70
2022-12-28T03:53:17.959Z,10.00
2022-12-28T03:55:45.402Z,10.15
2022-12-28T03:58:15.135Z,10.07
2022-12-28T04:00:42.506Z,10.57
2022-12-28T04:03:09.797Z,9.98
2022-12-28T04:05:37.346Z,10.30
2022-12-28T04:08:05.015Z,10.57
2022-12-28T04:10:32.384Z,9.93
2022-12-28T04:12:59.755Z,9.60
2022-12-28T04:15:56.041Z,10.15
2022-12-28T04:18:23.334Z,9.80
2022-12-28T04:20:50.870Z,9.77
2022-12-28T04:23:18.322Z,9.55
2022-12-28T04:26:07.923Z,9.50
2022-12-28T04:28:35.657Z,10.68
2022-12-28T04:31:35.395Z,9.38
2022-12-28T04:34:19.066Z,9.52
2022-12-28T04:36:54.263Z,9.73
2022-12-28T04:39:22.793Z,9.23
2022-12-28T04:41:50.180Z,10.40
2022-12-28T04:44:17.338Z,11.02
2022-12-28T04:46:44.922Z,11.38
2022-12-28T04:49:12.065Z,9.88
2022-12-28T04:51:39.563Z,10.80
2022-12-28T04:54:06.871Z,11.98
2022-12-28T04:56:34.196Z,10.68
2022-12-28T04:59:01.359Z,11.30
2022-12-28T05:01:29.059Z,12.50
2022-12-28T05:03:59.459Z,11.70
2022-12-28T05:06:28.177Z,11.45
2022-12-28T05:08:56.910Z,10.77
2022-12-28T05:11:27.854Z,11.70
2022-12-28T05:13:55.222Z,12.65
2022-12-28T05:16:24.309Z,10.90
2022-12-28T05:18:51.758Z,10.60
2022-12-28T05:21:21.961Z,11.98
2022-12-28T05:23:49.917Z,11.73
2022-12-28T05:26:19.533Z,11.48
2022-12-28T05:28:46.631Z,11.65
2022-12-28T05:31:16.716Z,11.57
2022-12-28T05:33:44.546Z,12.50
2022-12-28T05:36:17.199Z,12.00
2022-12-28T05:38:44.622Z,12.68
2022-12-28T05:41:14.645Z,12.85
2022-12-28T05:43:42.927Z,11.52
2022-12-28T05:46:19.544Z,12.90
2022-12-28T05:48:47.207Z,13.55
2022-12-28T05:51:17.261Z,12.50
2022-12-28T05:53:44.946Z,12.27
2022-12-28T05:56:15.056Z,11.32
2022-12-28T05:58:44.685Z,12.50
2022-12-28T06:01:18.424Z,12.93
2022-12-28T06:03:47.336Z,13.13
2022-12-28T06:06:17.143Z,12.15
2022-12-28T06:08:45.760Z,13.75
2022-12-28T06:11:16.755Z,12.25
2022-12-28T06:13:43.960Z,12.80
2022-12-28T06:16:17.181Z,12.63
2022-12-28T06:18:45.174Z,12.35
2022-12-28T06:21:23.862Z,12.73
2022-12-28T06:23:51.534Z,11.93
2022-12-28T06:26:21.740Z,12.77
2022-12-28T06:28:49.765Z,13.75
2022-12-28T06:31:24.953Z,13.07
2022-12-28T06:33:54.359Z,12.88
2022-12-28T06:36:27.028Z,12.15
2022-12-28T06:38:55.994Z,13.88
2022-12-28T06:41:23.713Z,13.88
2022-12-28T06:43:51.569Z,13.95
2022-12-28T06:46:20.480Z,14.07
2022-12-28T06:48:47.800Z,14.00
2022-12-28T06:51:20.197Z,13.05
2022-12-28T06:53:48.484Z,14.98
2022-12-28T06:56:35.560Z,15.10
2022-12-28T06:59:04.286Z,15.15
2022-12-28T07:01:39.735Z,13.95
2022-12-28T07:04:09.328Z,15.35
2022-12-28T07:06:40.127Z,15.45
2022-12-28T07:09:10.587Z,15.73
2022-12-28T07:11:38.449Z,14.68
2022-12-28T07:14:05.723Z,15.48
2022-12-28T07:19:00.236Z,14.63
2022-12-28T07:21:39.129Z,15.05
2022-12-28T07:24:07.113Z,14.95
2022-12-28T07:26:36.256Z,15.13
2022-12-28T07:29:05.193Z,14.55
2022-12-28T07:31:41.768Z,16.88
2022-12-28T07:34:12.148Z,15.15
2022-12-28T07:36:39.722Z,14.65
2022-12-28T07:39:06.959Z,14.90
2022-12-28T07:41:36.327Z,14.02
2022-12-28T07:44:06.242Z,16.00
2022-12-28T07:46:35.969Z,13.90
2022-12-28T07:49:03.631Z,15.57
2022-12-28T07:51:33.281Z,17.20
2022-12-28T07:54:01.108Z,16.13
2022-12-28T07:56:30.566Z,14.75
2022-12-28T07:58:59.732Z,16.50
2022-12-28T08:01:29.871Z,15.38
2022-12-28T08:03:59.267Z,17.90
2022-12-28T08:06:28.084Z,17.02
2022-12-28T08:08:58.490Z,16.02
2022-12-28T08:11:31.885Z,18.48
2022-12-28T08:14:00.217Z,14.13
2022-12-28T08:16:29.354Z,13.73
2022-12-28T08:18:56.970Z,15.43
2022-12-28T08:21:31.255Z,14.73
2022-12-28T08:23:59.492Z,15.43
2022-12-28T08:26:33.027Z,14.98
2022-12-28T08:29:02.267Z,15.25
2022-12-28T08:31:35.792Z,14.63
2022-12-28T08:34:04.986Z,14.55
2022-12-28T08:36:33.054Z,15.63
2022-12-28T08:39:01.301Z,14.05
2022-12-28T08:41:30.222Z,14.88
2022-12-28T08:43:57.892Z,16.30
2022-12-28T08:46:28.000Z,14.52
2022-12-28T08:48:56.824Z,13.30
2022-12-28T08:51:27.378Z,13.13
2022-12-28T08:53:54.840Z,14.50
2022-12-28T08:56:28.208Z,14.18
2022-12-28T08:58:56.886Z,14.10
2022-12-28T09:01:27.163Z,13.07
2022-12-28T09:03:56.207Z,13.77
2022-12-28T09:06:33.358Z,12.23
2022-12-28T09:09:06.665Z,13.27
2022-12-28T09:11:36.216Z,12.90
2022-12-28T09:14:04.704Z,13.30
2022-12-28T09:16:32.431Z,12.77
2022-12-28T09:19:01.916Z,13.45
2022-12-28T09:21:31.963Z,13.48
2022-12-28T09:23:59.458Z,13.20
2022-12-28T09:26:32.416Z,13.15
2022-12-28T09:29:01.424Z,12.88
2022-12-28T09:31:31.689Z,12.32
2022-12-28T09:36:50.223Z,12.40
2022-12-28T09:39:19.893Z,12.23
2022-12-28T09:42:05.403Z,11.73
2022-12-28T09:44:38.713Z,11.57
2022-12-28T09:47:12.684Z,12.13
2022-12-28T09:49:59.295Z,10.88
2022-12-28T09:52:34.274Z,10.75
2022-12-28T09:55:11.637Z,11.35
2022-12-28T09:57:42.484Z,10.05
2022-12-28T10:00:18.551Z,10.32
2022-12-28T10:02:56.090Z,9.02
2022-12-28T10:05:23.712Z,9.88
2022-12-28T10:07:52.858Z,8.93
2022-12-28T10:10:21.975Z,8.75
2022-12-28T10:12:51.309Z,9.18
2022-12-28T10:15:18.732Z,9.25
2022-12-28T10:17:46.333Z,8.02
2022-12-28T10:20:17.392Z,8.18
2022-12-28T10:22:50.283Z,7.15
2022-12-28T10:25:21.110Z,8.55
2022-12-28T10:27:49.774Z,7.25
2022-12-28T10:30:26.953Z,7.30
2022-12-28T10:33:02.556Z,7.10
2022-12-28T10:35:30.825Z,7.20
2022-12-28T10:38:04.430Z,7.50
2022-12-28T10:40:38.129Z,6.65
2022-12-28T10:45:55.297Z,6.85
2022-12-28T10:48:27.856Z,6.80
2022-12-28T10:51:11.546Z,6.85
2022-12-28T10:53:39.528Z,7.22
2022-12-28T10:56:13.253Z,6.57
2022-12-28T10:58:43.148Z,6.88
2022-12-28T11:01:13.600Z,6.97
2022-12-28T11:03:20.601Z,7.03
2022-12-28T11:03:56.821Z,6.68
2022-12-28T11:06:29.010Z,6.60
2022-12-28T11:09:02.084Z,5.97
2022-12-28T11:11:30.664Z,6.00
2022-12-28T11:14:19.897Z,5.35
2022-12-28T11:16:47.622Z,5.55
2022-12-28T11:19:15.449Z,5.70
2022-12-28T11:21:43.624Z,5.95
2022-12-28T11:24:14.355Z,5.80
2022-12-28T11:26:50.071Z,6.60
2022-12-28T11:29:19.050Z,6.55
2022-12-28T11:32:01.084Z,5.90
2022-12-28T11:34:29.848Z,6.30
2022-12-28T11:36:57.542Z,6.28
2022-12-28T11:39:28.027Z,5.25
2022-12-28T11:42:38.573Z,6.18
2022-12-28T11:44:53.435Z,6.28
2022-12-28T11:47:28.479Z,6.65
2022-12-28T11:50:36.758Z,6.57
2022-12-28T11:53:19.449Z,5.65
2022-12-28T11:56:11.085Z,7.20
2022-12-28T11:58:41.578Z,6.70
2022-12-28T12:01:31.059Z,5.90
2022-12-28T12:03:58.535Z,6.60
2022-12-28T12:06:45.397Z,7.07
2022-12-28T12:09:24.957Z,7.13
2022-12-28T12:12:01.026Z,7.20
2022-12-28T12:14:31.277Z,6.57
2022-12-28T12:17:03.748Z,7.35
2022-12-28T12:19:33.962Z,7.45
2022-12-28T12:22:15.492Z,6.43
2022-12-28T12:24:50.636Z,7.10
2022-12-28T12:27:23.539Z,6.90
2022-12-28T12:30:00.968Z,7.75
2022-12-28T12:32:49.617Z,7.55
2022-12-28T12:35:23.148Z,7.43
2022-12-28T12:38:09.456Z,7.53
2022-12-28T12:40:58.628Z,8.18
2022-12-28T12:43:33.683Z,7.65
2022-12-28T12:46:06.468Z,8.15
2022-12-28T12:48:34.452Z,7.60
2022-12-28T12:51:11.136Z,7.82
2022-12-28T12:53:57.271Z,7.93
2022-12-28T12:56:24.437Z,7.20
2022-12-28T12:59:11.088Z,8.07
2022-12-28T13:01:57.229Z,6.43
2022-12-28T13:04:27.906Z,7.57
2022-12-28T13:07:03.819Z,7.35
2022-12-28T13:09:33.552Z,7.95
2022-12-28T13:12:01.907Z,7.13
2022-12-28T13:14:30.230Z,7.88
2022-12-28T13:16:59.100Z,6.85
2022-12-28T13:19:28.601Z,7.30
2022-12-28T13:21:59.405Z,7.05
2022-12-28T13:24:29.100Z,6.65
2022-12-28T13:26:58.697Z,6.97
2022-12-28T13:29:28.294Z,7.28
2022-12-28T13:31:56.033Z,7.50
2022-12-28T13:34:24.964Z,6.75
2022-12-28T13:36:53.921Z,7.25
2022-12-28T13:39:21.756Z,6.70
2022-12-28T13:41:54.469Z,6.68
2022-12-28T13:44:29.541Z,6.47
2022-12-28T13:47:30.798Z,5.82
2022-12-28T13:50:00.503Z,7.35
2022-12-28T13:52:32.574Z,6.68
2022-12-28T13:55:05.147Z,7.13
2022-12-28T13:57:46.830Z,6.55
2022-12-28T14:00:20.802Z,6.93
2022-12-28T14:02:51.351Z,6.82
2022-12-28T14:05:26.245Z,7.13
2022-12-28T14:07:55.104Z,6.78
2022-12-28T14:10:22.607Z,7.25
2022-12-28T14:12:50.786Z,6.20
2022-12-28T14:15:18.961Z,7.43
2022-12-28T14:17:48.082Z,6.63
2022-12-28T14:20:15.383Z,6.55
2022-12-28T14:22:43.195Z,6.65
2022-12-28T14:25:18.666Z,7.20
2022-12-28T14:27:59.207Z,6.13
2022-12-28T14:30:30.280Z,7.45
2022-12-28T14:33:04.928Z,7.22
2022-12-28T14:35:35.884Z,8.57
2022-12-28T14:38:03.486Z,6.97
2022-12-28T14:40:33.852Z,7.35
2022-12-28T14:43:06.963Z,7.28
2022-12-28T14:46:04.928Z,6.88
2022-12-28T14:48:35.738Z,7.28
2022-12-28T14:51:15.421Z,7.95
2022-12-28T14:53:45.604Z,7.47
2022-12-28T14:56:16.472Z,7.47
2022-12-28T14:58:54.474Z,6.70
2022-12-28T15:01:23.379Z,7.03
2022-12-28T15:04:44.887Z,7.25
2022-12-28T15:07:12.287Z,6.35
2022-12-28T15:09:41.278Z,6.72
2022-12-28T15:12:09.868Z,7.03
2022-12-28T15:14:38.223Z,6.30
2022-12-28T15:17:05.742Z,6.80
2022-12-28T15:19:34.625Z,6.93
2022-12-28T15:22:02.251Z,7.63
2022-12-28T15:24:33.851Z,6.90
2022-12-28T15:27:03.021Z,7.10
2022-12-28T15:32:18.580Z,6.80
2022-12-28T15:34:46.368Z,7.07
2022-12-28T15:37:13.576Z,6.72
2022-12-28T15:39:41.264Z,5.78
2022-12-28T15:42:09.002Z,5.40
2022-12-28T15:44:36.703Z,5.72
2022-12-28T15:47:03.948Z,6.05
2022-12-28T15:49:32.651Z,6.18
2022-12-28T15:51:59.975Z,6.95
2022-12-28T15:54:27.597Z,5.97
2022-12-28T15:56:55.908Z,7.10
2022-12-28T15:59:23.953Z,6.93
2022-12-28T16:01:51.716Z,7.63
2022-12-28T16:04:19.484Z,7.07
2022-12-28T16:06:46.778Z,7.28
2022-12-28T16:09:14.828Z,8.77
2022-12-28T16:11:43.078Z,7.30
2022-12-28T16:14:15.497Z,6.65
2022-12-28T16:16:43.000Z,7.95
2022-12-28T16:19:13.462Z,7.28
2022-12-28T16:21:41.133Z,8.00
2022-12-28T16:24:09.125Z,8.30
2022-12-28T16:26:36.484Z,8.57
2022-12-28T16:29:04.561Z,7.28
2022-12-28T16:31:36.798Z,7.35
2022-12-28T16:34:07.766Z,7.63
2022-12-28T16:36:35.339Z,7.80
2022-12-28T16:39:09.206Z,6.38
2022-12-28T16:41:37.395Z,7.03
2022-12-28T16:44:13.626Z,7.50
2022-12-28T16:46:40.936Z,7.40
2022-12-28T16:49:11.199Z,6.97
2022-12-28T16:51:40.921Z,7.03
2022-12-28T16:54:08.900Z,7.30
2022-12-28T16:56:36.199Z,7.57
2022-12-28T16:59:03.902Z,7.22
2022-12-28T17:01:31.271Z,6.90
2022-12-28T17:04:04.150Z,6.80
2022-12-28T17:06:32.112Z,6.50
2022-12-28T17:09:02.282Z,7.15
2022-12-28T17:11:29.996Z,7.10
2022-12-28T17:14:29.347Z,7.70
2022-12-28T17:17:03.118Z,7.40
2022-12-28T17:19:30.609Z,6.93
2022-12-28T17:21:57.834Z,8.00
2022-12-28T17:24:25.477Z,7.93
2022-12-28T17:26:52.913Z,7.43
2022-12-28T17:29:20.707Z,7.72
2022-12-28T17:31:48.131Z,8.27
2022-12-28T17:34:16.331Z,8.38
2022-12-28T17:36:43.672Z,8.40
2022-12-28T17:39:11.235Z,8.00
2022-12-28T17:41:38.536Z,7.10
2022-12-28T17:44:06.408Z,8.13
2022-12-28T17:46:38.004Z,7.50
2022-12-28T17:49:05.881Z,7.93
2022-12-28T17:51:34.703Z,7.53
2022-12-28T17:54:02.673Z,6.80
2022-12-28T17:56:29.965Z,7.10
2022-12-28T17:58:58.875Z,7.75
2022-12-28T18:01:28.051Z,7.13
2022-12-28T18:03:56.870Z,7.72
2022-12-28T18:06:25.710Z,7.85
2022-12-28T18:08:53.507Z,7.13
2022-12-28T18:11:20.717Z,8.27
2022-12-28T18:13:48.692Z,7.80
2022-12-28T18:16:17.611Z,7.13
2022-12-28T18:18:45.857Z,7.47
2022-12-28T18:21:21.074Z,8.48
2022-12-28T18:23:52.210Z,9.15
2022-12-28T18:26:26.455Z,7.80
2022-12-28T18:28:55.485Z,7.93
2022-12-28T18:31:23.378Z,7.97
2022-12-28T18:33:51.143Z,7.03
2022-12-28T18:36:18.772Z,7.80
2022-12-28T18:38:47.756Z,7.72
2022-12-28T18:41:17.849Z,6.80
2022-12-28T18:43:45.546Z,7.75
2022-12-28T18:46:13.198Z,7.45
2022-12-28T18:48:41.549Z,8.40
2022-12-28T18:51:14.547Z,7.95
2022-12-28T18:53:42.266Z,7.65
2022-12-28T18:56:10.931Z,8.70
2022-12-28T18:58:41.068Z,7.90
2022-12-28T19:04:03.612Z,7.45
2022-12-28T19:06:33.109Z,8.32
2022-12-28T19:09:00.998Z,6.47
2022-12-28T19:11:29.188Z,7.70
2022-12-28T19:13:56.969Z,7.97
2022-12-28T19:16:30.582Z,8.18
2022-12-28T19:18:59.503Z,8.27
2022-12-28T19:21:37.996Z,9.10
2022-12-28T19:24:13.736Z,8.30
2022-12-28T19:26:41.681Z,6.43
2022-12-28T19:29:12.299Z,7.70
2022-12-28T19:31:39.705Z,7.22
2022-12-28T19:34:07.458Z,7.55
2022-12-28T19:36:34.909Z,8.02
2022-12-28T19:39:02.595Z,7.53
2022-12-28T19:41:29.879Z,8.02
2022-12-28T19:43:57.659Z,7.78
2022-12-28T19:46:31.738Z,7.47
2022-12-28T19:49:01.795Z,7.20
2022-12-28T19:51:31.601Z,7.32
2022-12-28T19:54:01.152Z,7.68
2022-12-28T19:56:28.595Z,6.72
2022-12-28T19:59:04.989Z,6.30
2022-12-28T20:01:33.637Z,7.63
2022-12-28T20:04:04.456Z,7.68
2022-12-28T20:06:37.543Z,7.32
2022-12-28T20:09:05.673Z,7.13
2022-12-28T20:11:33.148Z,7.22
2022-12-28T20:14:02.481Z,7.65
2022-12-28T20:16:32.355Z,6.40
2022-12-28T20:19:02.025Z,8.25
2022-12-28T20:21:30.001Z,7.82
2022-12-28T20:23:58.042Z,7.40
2022-12-28T20:26:27.097Z,7.50
2022-12-28T20:28:56.775Z,8.43
2022-12-28T20:31:24.695Z,8.38
2022-12-28T20:33:52.737Z,7.78
2022-12-28T20:36:25.255Z,7.35
2022-12-28T20:41:42.890Z,8.05
2022-12-28T20:44:13.558Z,7.70
2022-12-28T20:46:43.188Z,8.40
2022-12-28T20:49:11.468Z,8.05
2022-12-28T20:51:39.025Z,8.48
2022-12-28T20:54:06.783Z,7.50
2022-12-28T20:56:38.383Z,8.90
2022-12-28T20:59:06.283Z,9.07
2022-12-28T21:01:36.478Z,8.57
2022-12-28T21:04:05.455Z,7.07
2022-12-28T21:06:33.321Z,7.43
2022-12-28T21:09:01.374Z,7.78
2022-12-28T21:11:31.203Z,7.93
2022-12-28T21:13:59.816Z,8.00
2022-12-28T21:16:27.687Z,7.00
2022-12-28T21:18:55.901Z,8.13
2022-12-28T21:21:23.514Z,8.82
2022-12-28T21:23:55.081Z,8.52
2022-12-28T21:26:22.443Z,8.15
2022-12-28T21:28:50.252Z,8.02
2022-12-28T21:31:17.769Z,8.40
2022-12-28T21:33:45.484Z,7.80
2022-12-28T21:36:17.498Z,7.95
2022-12-28T21:38:46.973Z,8.48
2022-12-28T21:41:37.818Z,8.50
2022-12-28T21:44:06.812Z,7.78
2022-12-28T21:46:36.009Z,8.20
2022-12-28T21:49:04.746Z,8.75
2022-12-28T21:51:32.683Z,8.65
2022-12-28T21:54:04.199Z,8.32
2022-12-28T21:56:32.933Z,7.93
2022-12-28T21:59:01.800Z,8.13
2022-12-28T22:01:48.024Z,8.15
2022-12-28T22:04:36.728Z,7.70
2022-12-28T22:07:05.722Z,7.97
2022-12-28T22:09:53.463Z,8.25
2022-12-28T22:12:39.580Z,7.93
2022-12-28T22:15:31.628Z,7.78
2022-12-28T22:18:08.412Z,8.18
2022-12-28T22:20:37.354Z,7.10
2022-12-28T22:23:05.447Z,8.35
2022-12-28T22:25:33.665Z,7.65
2022-12-28T22:28:01.512Z,8.40
2022-12-28T22:30:30.816Z,7.78
2022-12-28T22:32:58.309Z,7.97
2022-12-28T22:35:26.373Z,8.15
2022-12-28T22:37:54.062Z,8.48
2022-12-28T22:40:21.929Z,8.35
2022-12-28T22:42:50.592Z,7.50
2022-12-28T22:45:20.610Z,7.95
2022-12-28T22:47:48.569Z,8.35
2022-12-28T22:50:17.961Z,7.38
2022-12-28T22:52:45.695Z,8.48
2022-12-28T22:55:13.681Z,7.15
2022-12-28T22:57:41.158Z,7.57
2022-12-28T23:00:12.656Z,7.47
2022-12-28T23:02:40.259Z,7.95
2022-12-28T23:05:08.440Z,7.63
2022-12-28T23:07:36.551Z,7.35
2022-12-28T23:10:04.873Z,8.52
2022-12-28T23:12:32.331Z,6.75
2022-12-28T23:15:18.665Z,7.47
2022-12-28T23:18:10.663Z,7.65
2022-12-28T23:20:57.966Z,7.57
2022-12-28T23:23:43.757Z,8.05
2022-12-28T23:26:29.761Z,7.80
2022-12-28T23:28:57.008Z,7.82
2022-12-28T23:31:24.879Z,8.05
2022-12-28T23:33:52.844Z,7.88
2022-12-28T23:36:21.671Z,7.55
2022-12-28T23:38:50.851Z,7.50
2022-12-28T23:41:36.926Z,7.57
2022-12-28T23:44:04.287Z,7.47
2022-12-28T23:46:32.083Z,8.23
2022-12-28T23:48:59.539Z,8.23
2022-12-28T23:51:27.244Z,7.85
2022-12-28T23:53:54.650Z,7.95
2022-12-28T23:56:22.190Z,7.93
2022-12-28T23:58:49.914Z,7.38
